Airfield :
LOGIN :

Register | Disclaimer

   EN    FR    IT 

 










Legend :    VFR   Marginal VFR   IFR   Intensive IFR   Very Intensive IFR
Visi :
Ceiling :
>= 8 km
>= 3000ft
5 to 8 km
1000 to 3000 ft
1500m to 5 km
500 to 1000 ft
800 to 1500m
200 to 500 ft
< 800m
< 200 ft
Symbols :   Thunderstorms  Fog  Heavy snow  Heavy precipitations  Wind > 20 kt
SIGMETs :     Misc.  Thunderstorms  Icing  Turbulence  Mountain Waves  Volcanic Ashes







- Airport Elevation : 203 ft
- IATA code : XMJ
- Download approach charts


LFBM - Mont-De-Marsan

CURRENT METAR :
  • 190130Z AUTO 24004KT 210V270 7000 NSC 17/16 Q1018 BECMG BKN007

EXPIRED METARs :
  • 190100Z AUTO 25004KT 220V280 8000 NSC 17/16 Q1018 BECMG BKN007
  • 190030Z AUTO 22003KT CAVOK 17/16 Q1019 BECMG BKN007
  • 190000Z AUTO 22003KT 180V260 CAVOK 17/16 Q1018 NOSIG
  • 182330Z AUTO 22003KT 9000 NSC 17/16 Q1019 NOSIG
  • 182300Z AUTO 23004KT 200V260 7000 NSC 17/16 Q1018 NOSIG

TAF TAF LFBM
Valid from the 18 at 21:00 until the 19 at 21:00 UTC


182000Z 1821/1921 26010KT CAVOK
BECMG 1902/1904 BKN007
No reported NOTAMs for that airfield.



MET'MAP, your aeronautical weather chart ! - Copyright ORBIFLY December 2007 - Disclaimer

ORBIFLY MET'MAP TEAM :

Programming & Development : Alexandra Zaïnal
Concept & Development : Baudouin d'Aumeries
Co-Development & Prog : Marc-Olivier Méhu
Technical & hardware support : Manuel Goepfert

Contact : metmap@orbifly.com




SOURCES & CREDITS :

   NOAA